sensor_id;sensor_type;location;lat;lon;timestamp;P1;durP1;ratioP1;P2;durP2;ratioP2
30515;SDS011;17297;54.022;10.760;2023-08-06T00:01:23;6.03;;;2.63;;
30515;SDS011;17297;54.022;10.760;2023-08-06T00:03:50;5.78;;;2.53;;
30515;SDS011;17297;54.022;10.760;2023-08-06T00:06:15;3.35;;;2.67;;
30515;SDS011;17297;54.022;10.760;2023-08-06T00:08:41;3.42;;;2.70;;
30515;SDS011;17297;54.022;10.760;2023-08-06T00:11:06;3.47;;;2.08;;
30515;SDS011;17297;54.022;10.760;2023-08-06T00:13:31;2.55;;;1.98;;
30515;SDS011;17297;54.022;10.760;2023-08-06T00:16:07;3.72;;;2.38;;
30515;SDS011;17297;54.022;10.760;2023-08-06T00:18:38;8.35;;;3.25;;
30515;SDS011;17297;54.022;10.760;2023-08-06T00:21:04;4.00;;;2.30;;
30515;SDS011;17297;54.022;10.760;2023-08-06T00:23:29;7.15;;;3.92;;
30515;SDS011;17297;54.022;10.760;2023-08-06T00:25:55;11.30;;;2.90;;
30515;SDS011;17297;54.022;10.760;2023-08-06T00:28:20;4.30;;;2.28;;
30515;SDS011;17297;54.022;10.760;2023-08-06T00:30:46;4.20;;;2.85;;
30515;SDS011;17297;54.022;10.760;2023-08-06T00:33:11;3.13;;;2.55;;
30515;SDS011;17297;54.022;10.760;2023-08-06T00:35:36;3.53;;;2.47;;
30515;SDS011;17297;54.022;10.760;2023-08-06T00:38:02;3.42;;;2.50;;
30515;SDS011;17297;54.022;10.760;2023-08-06T00:40:27;3.85;;;2.65;;
30515;SDS011;17297;54.022;10.760;2023-08-06T00:42:55;4.03;;;2.70;;
30515;SDS011;17297;54.022;10.760;2023-08-06T00:45:20;6.82;;;2.75;;
30515;SDS011;17297;54.022;10.760;2023-08-06T00:47:47;4.22;;;3.03;;
30515;SDS011;17297;54.022;10.760;2023-08-06T00:50:13;4.93;;;3.28;;
30515;SDS011;17297;54.022;10.760;2023-08-06T00:52:38;6.40;;;3.13;;
30515;SDS011;17297;54.022;10.760;2023-08-06T00:55:04;4.13;;;2.67;;
30515;SDS011;17297;54.022;10.760;2023-08-06T00:57:31;4.70;;;2.28;;
30515;SDS011;17297;54.022;10.760;2023-08-06T00:59:56;5.25;;;3.03;;
30515;SDS011;17297;54.022;10.760;2023-08-06T01:02:22;4.18;;;3.78;;
30515;SDS011;17297;54.022;10.760;2023-08-06T01:04:47;4.25;;;3.22;;
30515;SDS011;17297;54.022;10.760;2023-08-06T01:07:19;5.63;;;3.22;;
30515;SDS011;17297;54.022;10.760;2023-08-06T01:12:40;5.88;;;2.60;;
30515;SDS011;17297;54.022;10.760;2023-08-06T01:15:20;5.25;;;2.50;;
30515;SDS011;17297;54.022;10.760;2023-08-06T01:17:49;3.75;;;2.38;;
30515;SDS011;17297;54.022;10.760;2023-08-06T01:20:15;4.88;;;2.45;;
30515;SDS011;17297;54.022;10.760;2023-08-06T01:22:40;4.95;;;3.03;;
30515;SDS011;17297;54.022;10.760;2023-08-06T01:25:06;3.28;;;1.98;;
30515;SDS011;17297;54.022;10.760;2023-08-06T01:27:33;23.77;;;5.40;;
30515;SDS011;17297;54.022;10.760;2023-08-06T01:30:15;5.82;;;3.50;;
30515;SDS011;17297;54.022;10.760;2023-08-06T01:32:43;2.83;;;2.38;;
30515;SDS011;17297;54.022;10.760;2023-08-06T01:35:11;4.50;;;2.70;;
30515;SDS011;17297;54.022;10.760;2023-08-06T01:37:38;4.30;;;2.50;;
30515;SDS011;17297;54.022;10.760;2023-08-06T01:40:07;4.22;;;2.20;;
30515;SDS011;17297;54.022;10.760;2023-08-06T01:42:35;3.22;;;2.05;;
30515;SDS011;17297;54.022;10.760;2023-08-06T01:45:00;3.50;;;1.98;;
30515;SDS011;17297;54.022;10.760;2023-08-06T01:47:26;2.00;;;1.80;;
30515;SDS011;17297;54.022;10.760;2023-08-06T01:49:51;2.58;;;1.70;;
30515;SDS011;17297;54.022;10.760;2023-08-06T01:52:17;2.10;;;1.83;;
30515;SDS011;17297;54.022;10.760;2023-08-06T01:54:43;2.45;;;2.25;;
30515;SDS011;17297;54.022;10.760;2023-08-06T01:57:09;4.82;;;1.88;;
30515;SDS011;17297;54.022;10.760;2023-08-06T01:59:35;3.33;;;2.00;;
30515;SDS011;17297;54.022;10.760;2023-08-06T02:02:00;2.65;;;1.92;;
30515;SDS011;17297;54.022;10.760;2023-08-06T02:04:25;2.20;;;1.80;;
30515;SDS011;17297;54.022;10.760;2023-08-06T02:06:51;1.95;;;1.65;;
30515;SDS011;17297;54.022;10.760;2023-08-06T02:09:16;2.70;;;2.30;;
30515;SDS011;17297;54.022;10.760;2023-08-06T02:11:41;5.55;;;1.70;;
30515;SDS011;17297;54.022;10.760;2023-08-06T02:14:07;2.50;;;1.77;;
30515;SDS011;17297;54.022;10.760;2023-08-06T02:16:32;1.88;;;1.60;;
30515;SDS011;17297;54.022;10.760;2023-08-06T02:18:57;2.65;;;1.92;;
30515;SDS011;17297;54.022;10.760;2023-08-06T02:21:23;2.30;;;1.90;;
30515;SDS011;17297;54.022;10.760;2023-08-06T02:23:48;2.63;;;2.42;;
30515;SDS011;17297;54.022;10.760;2023-08-06T02:26:13;3.42;;;2.35;;
30515;SDS011;17297;54.022;10.760;2023-08-06T02:28:39;3.17;;;1.90;;
30515;SDS011;17297;54.022;10.760;2023-08-06T02:31:04;1.58;;;1.48;;
30515;SDS011;17297;54.022;10.760;2023-08-06T02:33:31;1.92;;;1.60;;
30515;SDS011;17297;54.022;10.760;2023-08-06T02:36:00;4.40;;;2.13;;
30515;SDS011;17297;54.022;10.760;2023-08-06T02:38:27;4.65;;;2.40;;
30515;SDS011;17297;54.022;10.760;2023-08-06T02:40:52;6.85;;;2.80;;
30515;SDS011;17297;54.022;10.760;2023-08-06T02:43:17;3.53;;;2.17;;
30515;SDS011;17297;54.022;10.760;2023-08-06T02:45:43;3.25;;;2.85;;
30515;SDS011;17297;54.022;10.760;2023-08-06T02:48:08;5.43;;;2.67;;
30515;SDS011;17297;54.022;10.760;2023-08-06T02:50:38;5.43;;;2.83;;
30515;SDS011;17297;54.022;10.760;2023-08-06T02:53:04;4.72;;;2.30;;
30515;SDS011;17297;54.022;10.760;2023-08-06T02:55:30;5.60;;;2.80;;
30515;SDS011;17297;54.022;10.760;2023-08-06T02:57:56;3.58;;;2.25;;
30515;SDS011;17297;54.022;10.760;2023-08-06T03:00:21;5.00;;;2.50;;
30515;SDS011;17297;54.022;10.760;2023-08-06T03:02:47;5.22;;;3.42;;
30515;SDS011;17297;54.022;10.760;2023-08-06T03:05:51;4.78;;;2.50;;
30515;SDS011;17297;54.022;10.760;2023-08-06T03:08:23;5.57;;;3.42;;
30515;SDS011;17297;54.022;10.760;2023-08-06T03:10:50;4.88;;;2.83;;
30515;SDS011;17297;54.022;10.760;2023-08-06T03:13:17;4.32;;;2.97;;
30515;SDS011;17297;54.022;10.760;2023-08-06T03:15:51;4.45;;;2.85;;
30515;SDS011;17297;54.022;10.760;2023-08-06T03:18:18;4.32;;;2.97;;
30515;SDS011;17297;54.022;10.760;2023-08-06T03:20:44;16.35;;;3.25;;
30515;SDS011;17297;54.022;10.760;2023-08-06T03:23:12;3.80;;;2.40;;
30515;SDS011;17297;54.022;10.760;2023-08-06T03:25:37;4.43;;;2.70;;
30515;SDS011;17297;54.022;10.760;2023-08-06T03:28:03;3.10;;;2.80;;
30515;SDS011;17297;54.022;10.760;2023-08-06T03:30:29;6.63;;;2.83;;
30515;SDS011;17297;54.022;10.760;2023-08-06T03:32:54;5.38;;;3.15;;
30515;SDS011;17297;54.022;10.760;2023-08-06T03:35:20;4.47;;;2.97;;
30515;SDS011;17297;54.022;10.760;2023-08-06T03:37:47;3.70;;;3.17;;
30515;SDS011;17297;54.022;10.760;2023-08-06T03:40:12;4.50;;;2.65;;
30515;SDS011;17297;54.022;10.760;2023-08-06T03:42:39;4.45;;;2.78;;
30515;SDS011;17297;54.022;10.760;2023-08-06T03:45:05;5.55;;;2.58;;
30515;SDS011;17297;54.022;10.760;2023-08-06T03:47:32;5.20;;;3.40;;
30515;SDS011;17297;54.022;10.760;2023-08-06T03:49:57;7.60;;;2.50;;
30515;SDS011;17297;54.022;10.760;2023-08-06T03:52:23;5.55;;;3.08;;
30515;SDS011;17297;54.022;10.760;2023-08-06T03:54:48;3.28;;;2.47;;
30515;SDS011;17297;54.022;10.760;2023-08-06T03:57:14;3.83;;;3.00;;
30515;SDS011;17297;54.022;10.760;2023-08-06T03:59:39;4.32;;;3.08;;
30515;SDS011;17297;54.022;10.760;2023-08-06T04:02:05;6.30;;;3.25;;
30515;SDS011;17297;54.022;10.760;2023-08-06T04:04:31;6.03;;;3.88;;
30515;SDS011;17297;54.022;10.760;2023-08-06T04:06:56;4.57;;;4.18;;
30515;SDS011;17297;54.022;10.760;2023-08-06T04:09:22;4.20;;;2.78;;
30515;SDS011;17297;54.022;10.760;2023-08-06T04:11:47;7.60;;;3.63;;
30515;SDS011;17297;54.022;10.760;2023-08-06T04:14:12;10.07;;;3.30;;
30515;SDS011;17297;54.022;10.760;2023-08-06T04:16:38;5.07;;;3.20;;
30515;SDS011;17297;54.022;10.760;2023-08-06T04:19:03;6.65;;;3.50;;
30515;SDS011;17297;54.022;10.760;2023-08-06T04:21:28;6.03;;;3.17;;
30515;SDS011;17297;54.022;10.760;2023-08-06T04:23:54;5.32;;;3.17;;
30515;SDS011;17297;54.022;10.760;2023-08-06T04:26:20;3.67;;;3.00;;
30515;SDS011;17297;54.022;10.760;2023-08-06T04:28:45;4.60;;;3.25;;
30515;SDS011;17297;54.022;10.760;2023-08-06T04:31:10;9.50;;;4.18;;
30515;SDS011;17297;54.022;10.760;2023-08-06T04:33:38;5.53;;;3.25;;
30515;SDS011;17297;54.022;10.760;2023-08-06T04:36:08;5.22;;;3.75;;
30515;SDS011;17297;54.022;10.760;2023-08-06T04:38:33;8.30;;;4.43;;
30515;SDS011;17297;54.022;10.760;2023-08-06T04:40:58;5.88;;;4.38;;
30515;SDS011;17297;54.022;10.760;2023-08-06T04:43:24;6.78;;;3.95;;
30515;SDS011;17297;54.022;10.760;2023-08-06T04:45:50;4.57;;;3.63;;
30515;SDS011;17297;54.022;10.760;2023-08-06T04:48:18;5.68;;;4.10;;
30515;SDS011;17297;54.022;10.760;2023-08-06T04:50:45;9.00;;;4.30;;
30515;SDS011;17297;54.022;10.760;2023-08-06T04:53:11;6.65;;;4.47;;
30515;SDS011;17297;54.022;10.760;2023-08-06T04:55:36;8.02;;;4.22;;
30515;SDS011;17297;54.022;10.760;2023-08-06T04:58:01;5.82;;;4.55;;
30515;SDS011;17297;54.022;10.760;2023-08-06T05:00:27;7.35;;;4.70;;
30515;SDS011;17297;54.022;10.760;2023-08-06T05:02:52;7.30;;;4.82;;
30515;SDS011;17297;54.022;10.760;2023-08-06T05:05:17;7.70;;;4.70;;
30515;SDS011;17297;54.022;10.760;2023-08-06T05:07:43;6.70;;;4.60;;
30515;SDS011;17297;54.022;10.760;2023-08-06T05:10:08;6.03;;;3.80;;
30515;SDS011;17297;54.022;10.760;2023-08-06T05:12:33;8.02;;;5.00;;
30515;SDS011;17297;54.022;10.760;2023-08-06T05:14:59;6.35;;;3.85;;
30515;SDS011;17297;54.022;10.760;2023-08-06T05:17:26;6.35;;;4.00;;
30515;SDS011;17297;54.022;10.760;2023-08-06T05:19:51;7.85;;;4.13;;
30515;SDS011;17297;54.022;10.760;2023-08-06T05:22:17;7.00;;;3.08;;
30515;SDS011;17297;54.022;10.760;2023-08-06T05:24:44;5.68;;;2.78;;
30515;SDS011;17297;54.022;10.760;2023-08-06T05:27:09;6.65;;;3.58;;
30515;SDS011;17297;54.022;10.760;2023-08-06T05:29:34;7.28;;;3.88;;
30515;SDS011;17297;54.022;10.760;2023-08-06T05:31:59;6.15;;;3.03;;
30515;SDS011;17297;54.022;10.760;2023-08-06T05:34:25;5.32;;;2.92;;
30515;SDS011;17297;54.022;10.760;2023-08-06T05:36:51;6.53;;;3.58;;
30515;SDS011;17297;54.022;10.760;2023-08-06T05:39:17;9.68;;;4.10;;
30515;SDS011;17297;54.022;10.760;2023-08-06T05:41:43;6.78;;;3.20;;
30515;SDS011;17297;54.022;10.760;2023-08-06T05:44:08;4.90;;;3.35;;
30515;SDS011;17297;54.022;10.760;2023-08-06T05:46:33;4.68;;;3.08;;
30515;SDS011;17297;54.022;10.760;2023-08-06T05:48:59;4.18;;;3.00;;
30515;SDS011;17297;54.022;10.760;2023-08-06T05:51:25;4.88;;;2.63;;
30515;SDS011;17297;54.022;10.760;2023-08-06T05:53:51;5.25;;;2.88;;
30515;SDS011;17297;54.022;10.760;2023-08-06T05:56:18;4.40;;;3.10;;
30515;SDS011;17297;54.022;10.760;2023-08-06T05:58:43;4.60;;;3.17;;
30515;SDS011;17297;54.022;10.760;2023-08-06T06:01:09;6.05;;;3.55;;
30515;SDS011;17297;54.022;10.760;2023-08-06T06:03:34;5.65;;;3.22;;
30515;SDS011;17297;54.022;10.760;2023-08-06T06:06:00;3.95;;;3.25;;
30515;SDS011;17297;54.022;10.760;2023-08-06T06:08:26;8.55;;;3.78;;
30515;SDS011;17297;54.022;10.760;2023-08-06T06:10:51;6.13;;;3.10;;
30515;SDS011;17297;54.022;10.760;2023-08-06T06:13:17;5.10;;;3.50;;
30515;SDS011;17297;54.022;10.760;2023-08-06T06:15:42;4.07;;;3.35;;
30515;SDS011;17297;54.022;10.760;2023-08-06T06:18:07;6.80;;;3.45;;
30515;SDS011;17297;54.022;10.760;2023-08-06T06:20:33;5.55;;;3.50;;
30515;SDS011;17297;54.022;10.760;2023-08-06T06:22:58;4.00;;;3.15;;
30515;SDS011;17297;54.022;10.760;2023-08-06T06:25:24;6.32;;;3.00;;
30515;SDS011;17297;54.022;10.760;2023-08-06T06:27:49;4.03;;;3.00;;
30515;SDS011;17297;54.022;10.760;2023-08-06T06:30:15;7.05;;;2.97;;
30515;SDS011;17297;54.022;10.760;2023-08-06T06:32:40;4.25;;;2.80;;
30515;SDS011;17297;54.022;10.760;2023-08-06T06:35:06;4.75;;;2.95;;
30515;SDS011;17297;54.022;10.760;2023-08-06T06:37:32;7.75;;;3.80;;
30515;SDS011;17297;54.022;10.760;2023-08-06T06:39:57;4.72;;;2.95;;
30515;SDS011;17297;54.022;10.760;2023-08-06T06:42:23;4.65;;;3.15;;
30515;SDS011;17297;54.022;10.760;2023-08-06T06:44:51;4.00;;;2.85;;
30515;SDS011;17297;54.022;10.760;2023-08-06T06:47:16;6.25;;;3.72;;
30515;SDS011;17297;54.022;10.760;2023-08-06T06:49:42;4.93;;;2.35;;
30515;SDS011;17297;54.022;10.760;2023-08-06T06:52:07;5.72;;;3.03;;
30515;SDS011;17297;54.022;10.760;2023-08-06T06:54:32;5.45;;;3.08;;
30515;SDS011;17297;54.022;10.760;2023-08-06T06:56:58;5.65;;;3.08;;
30515;SDS011;17297;54.022;10.760;2023-08-06T06:59:23;4.78;;;3.25;;
30515;SDS011;17297;54.022;10.760;2023-08-06T07:01:48;4.15;;;3.63;;
30515;SDS011;17297;54.022;10.760;2023-08-06T07:04:14;5.70;;;3.03;;
30515;SDS011;17297;54.022;10.760;2023-08-06T07:06:40;5.97;;;2.65;;
30515;SDS011;17297;54.022;10.760;2023-08-06T07:09:05;6.53;;;3.42;;
30515;SDS011;17297;54.022;10.760;2023-08-06T07:11:31;12.05;;;3.25;;
30515;SDS011;17297;54.022;10.760;2023-08-06T07:13:57;6.50;;;2.88;;
30515;SDS011;17297;54.022;10.760;2023-08-06T07:16:25;3.88;;;2.40;;
30515;SDS011;17297;54.022;10.760;2023-08-06T07:18:51;4.45;;;2.90;;
30515;SDS011;17297;54.022;10.760;2023-08-06T07:21:18;3.13;;;2.50;;
30515;SDS011;17297;54.022;10.760;2023-08-06T07:23:43;6.53;;;3.15;;
30515;SDS011;17297;54.022;10.760;2023-08-06T07:26:08;4.32;;;2.70;;
30515;SDS011;17297;54.022;10.760;2023-08-06T07:28:34;5.38;;;3.70;;
30515;SDS011;17297;54.022;10.760;2023-08-06T07:30:59;4.75;;;2.78;;
30515;SDS011;17297;54.022;10.760;2023-08-06T07:33:25;4.32;;;3.17;;
30515;SDS011;17297;54.022;10.760;2023-08-06T07:35:50;2.95;;;2.50;;
30515;SDS011;17297;54.022;10.760;2023-08-06T07:38:15;2.75;;;2.55;;
30515;SDS011;17297;54.022;10.760;2023-08-06T07:40:42;5.82;;;2.55;;
30515;SDS011;17297;54.022;10.760;2023-08-06T07:43:07;5.15;;;3.85;;
30515;SDS011;17297;54.022;10.760;2023-08-06T07:45:36;3.25;;;2.00;;
30515;SDS011;17297;54.022;10.760;2023-08-06T07:48:02;5.72;;;2.47;;
30515;SDS011;17297;54.022;10.760;2023-08-06T07:50:28;2.92;;;2.28;;
30515;SDS011;17297;54.022;10.760;2023-08-06T07:52:53;3.70;;;2.85;;
30515;SDS011;17297;54.022;10.760;2023-08-06T07:55:19;3.47;;;2.60;;
30515;SDS011;17297;54.022;10.760;2023-08-06T07:57:44;3.45;;;2.50;;
30515;SDS011;17297;54.022;10.760;2023-08-06T08:00:09;3.80;;;2.65;;
30515;SDS011;17297;54.022;10.760;2023-08-06T08:02:38;15.52;;;4.30;;
30515;SDS011;17297;54.022;10.760;2023-08-06T08:05:03;4.65;;;2.25;;
30515;SDS011;17297;54.022;10.760;2023-08-06T08:07:29;3.28;;;2.47;;
30515;SDS011;17297;54.022;10.760;2023-08-06T08:09:55;4.13;;;2.65;;
30515;SDS011;17297;54.022;10.760;2023-08-06T08:12:21;4.32;;;2.35;;
30515;SDS011;17297;54.022;10.760;2023-08-06T08:14:47;3.85;;;3.00;;
30515;SDS011;17297;54.022;10.760;2023-08-06T08:17:12;4.65;;;2.30;;
30515;SDS011;17297;54.022;10.760;2023-08-06T08:19:37;4.22;;;2.38;;
30515;SDS011;17297;54.022;10.760;2023-08-06T08:22:03;4.65;;;2.53;;
30515;SDS011;17297;54.022;10.760;2023-08-06T08:24:28;2.72;;;2.17;;
30515;SDS011;17297;54.022;10.760;2023-08-06T08:26:55;3.22;;;2.40;;
30515;SDS011;17297;54.022;10.760;2023-08-06T08:29:21;3.13;;;2.42;;
30515;SDS011;17297;54.022;10.760;2023-08-06T08:31:47;3.88;;;2.55;;
30515;SDS011;17297;54.022;10.760;2023-08-06T08:34:14;3.72;;;2.53;;
30515;SDS011;17297;54.022;10.760;2023-08-06T08:36:40;4.97;;;2.53;;
30515;SDS011;17297;54.022;10.760;2023-08-06T08:39:05;3.42;;;2.17;;
30515;SDS011;17297;54.022;10.760;2023-08-06T08:41:31;3.22;;;2.28;;
30515;SDS011;17297;54.022;10.760;2023-08-06T08:43:58;3.75;;;2.55;;
30515;SDS011;17297;54.022;10.760;2023-08-06T08:46:27;3.22;;;2.17;;
30515;SDS011;17297;54.022;10.760;2023-08-06T08:48:55;3.42;;;2.00;;
30515;SDS011;17297;54.022;10.760;2023-08-06T08:51:22;3.10;;;2.22;;
30515;SDS011;17297;54.022;10.760;2023-08-06T08:53:50;3.60;;;2.10;;
30515;SDS011;17297;54.022;10.760;2023-08-06T08:56:18;9.93;;;3.83;;
30515;SDS011;17297;54.022;10.760;2023-08-06T08:58:44;5.03;;;2.20;;
30515;SDS011;17297;54.022;10.760;2023-08-06T09:01:09;4.43;;;2.17;;
30515;SDS011;17297;54.022;10.760;2023-08-06T09:03:36;2.97;;;2.10;;
30515;SDS011;17297;54.022;10.760;2023-08-06T09:06:01;3.90;;;2.15;;
30515;SDS011;17297;54.022;10.760;2023-08-06T09:08:30;2.15;;;1.85;;
30515;SDS011;17297;54.022;10.760;2023-08-06T09:11:01;4.78;;;2.78;;
30515;SDS011;17297;54.022;10.760;2023-08-06T09:13:28;5.00;;;2.30;;
30515;SDS011;17297;54.022;10.760;2023-08-06T09:15:53;3.45;;;2.40;;
30515;SDS011;17297;54.022;10.760;2023-08-06T09:18:25;4.28;;;2.30;;
30515;SDS011;17297;54.022;10.760;2023-08-06T09:20:54;2.28;;;1.95;;
30515;SDS011;17297;54.022;10.760;2023-08-06T09:23:20;3.70;;;2.17;;
30515;SDS011;17297;54.022;10.760;2023-08-06T09:25:45;3.75;;;2.08;;
30515;SDS011;17297;54.022;10.760;2023-08-06T09:28:11;3.83;;;2.20;;
30515;SDS011;17297;54.022;10.760;2023-08-06T09:30:36;3.40;;;2.10;;
30515;SDS011;17297;54.022;10.760;2023-08-06T09:33:02;2.88;;;1.50;;
30515;SDS011;17297;54.022;10.760;2023-08-06T09:35:31;4.25;;;1.92;;
30515;SDS011;17297;54.022;10.760;2023-08-06T09:38:09;4.32;;;1.80;;
30515;SDS011;17297;54.022;10.760;2023-08-06T09:40:35;3.80;;;2.70;;
30515;SDS011;17297;54.022;10.760;2023-08-06T09:43:01;2.95;;;2.15;;
30515;SDS011;17297;54.022;10.760;2023-08-06T09:45:31;3.63;;;1.83;;
30515;SDS011;17297;54.022;10.760;2023-08-06T09:48:08;4.13;;;2.58;;
30515;SDS011;17297;54.022;10.760;2023-08-06T09:50:35;3.95;;;2.08;;
30515;SDS011;17297;54.022;10.760;2023-08-06T09:53:01;5.35;;;2.20;;
30515;SDS011;17297;54.022;10.760;2023-08-06T09:55:30;2.70;;;1.90;;
30515;SDS011;17297;54.022;10.760;2023-08-06T09:57:57;3.30;;;2.40;;
30515;SDS011;17297;54.022;10.760;2023-08-06T10:00:24;3.55;;;2.83;;
30515;SDS011;17297;54.022;10.760;2023-08-06T10:02:50;3.13;;;2.03;;
30515;SDS011;17297;54.022;10.760;2023-08-06T10:05:16;7.25;;;2.60;;
30515;SDS011;17297;54.022;10.760;2023-08-06T10:07:42;3.50;;;2.30;;
30515;SDS011;17297;54.022;10.760;2023-08-06T10:10:09;4.13;;;1.77;;
30515;SDS011;17297;54.022;10.760;2023-08-06T10:12:39;2.88;;;2.00;;
30515;SDS011;17297;54.022;10.760;2023-08-06T10:15:12;3.50;;;2.00;;
30515;SDS011;17297;54.022;10.760;2023-08-06T10:17:40;3.90;;;1.85;;
30515;SDS011;17297;54.022;10.760;2023-08-06T10:20:07;3.58;;;1.90;;
30515;SDS011;17297;54.022;10.760;2023-08-06T10:22:33;4.95;;;2.10;;
30515;SDS011;17297;54.022;10.760;2023-08-06T10:24:59;2.58;;;2.13;;
30515;SDS011;17297;54.022;10.760;2023-08-06T10:27:36;3.53;;;2.10;;
30515;SDS011;17297;54.022;10.760;2023-08-06T10:30:22;2.33;;;1.77;;
30515;SDS011;17297;54.022;10.760;2023-08-06T10:32:51;4.47;;;2.00;;
30515;SDS011;17297;54.022;10.760;2023-08-06T10:35:31;3.67;;;1.85;;
30515;SDS011;17297;54.022;10.760;2023-08-06T10:40:37;5.80;;;3.10;;
30515;SDS011;17297;54.022;10.760;2023-08-06T10:43:04;2.70;;;1.75;;
30515;SDS011;17297;54.022;10.760;2023-08-06T10:45:35;2.60;;;1.80;;
30515;SDS011;17297;54.022;10.760;2023-08-06T10:48:03;4.90;;;1.80;;
30515;SDS011;17297;54.022;10.760;2023-08-06T10:50:29;2.95;;;2.30;;
30515;SDS011;17297;54.022;10.760;2023-08-06T10:52:56;3.78;;;2.65;;
30515;SDS011;17297;54.022;10.760;2023-08-06T10:55:23;3.25;;;1.85;;
30515;SDS011;17297;54.022;10.760;2023-08-06T10:57:48;3.63;;;3.25;;
30515;SDS011;17297;54.022;10.760;2023-08-06T11:00:14;6.05;;;3.45;;
30515;SDS011;17297;54.022;10.760;2023-08-06T11:02:39;2.30;;;2.05;;
30515;SDS011;17297;54.022;10.760;2023-08-06T11:05:06;2.92;;;2.50;;
30515;SDS011;17297;54.022;10.760;2023-08-06T11:07:32;6.32;;;2.40;;
30515;SDS011;17297;54.022;10.760;2023-08-06T11:10:01;2.75;;;1.70;;
30515;SDS011;17297;54.022;10.760;2023-08-06T11:12:27;3.75;;;1.83;;
30515;SDS011;17297;54.022;10.760;2023-08-06T11:14:53;2.50;;;1.60;;
30515;SDS011;17297;54.022;10.760;2023-08-06T11:17:18;3.45;;;1.80;;
30515;SDS011;17297;54.022;10.760;2023-08-06T11:19:44;2.40;;;1.70;;
30515;SDS011;17297;54.022;10.760;2023-08-06T11:22:11;4.57;;;1.60;;
30515;SDS011;17297;54.022;10.760;2023-08-06T11:24:37;2.83;;;1.70;;
30515;SDS011;17297;54.022;10.760;2023-08-06T11:27:10;4.05;;;1.98;;
30515;SDS011;17297;54.022;10.760;2023-08-06T11:29:37;2.08;;;1.42;;
30515;SDS011;17297;54.022;10.760;2023-08-06T11:32:06;3.58;;;1.50;;
30515;SDS011;17297;54.022;10.760;2023-08-06T11:34:31;4.50;;;1.63;;
30515;SDS011;17297;54.022;10.760;2023-08-06T11:36:57;3.55;;;1.83;;
30515;SDS011;17297;54.022;10.760;2023-08-06T11:39:22;2.05;;;1.70;;
30515;SDS011;17297;54.022;10.760;2023-08-06T11:41:48;2.90;;;1.77;;
30515;SDS011;17297;54.022;10.760;2023-08-06T11:44:14;2.55;;;1.52;;
30515;SDS011;17297;54.022;10.760;2023-08-06T11:46:55;7.30;;;2.45;;
30515;SDS011;17297;54.022;10.760;2023-08-06T11:52:18;2.67;;;2.10;;
30515;SDS011;17297;54.022;10.760;2023-08-06T11:55:08;6.72;;;2.75;;
30515;SDS011;17297;54.022;10.760;2023-08-06T11:57:38;3.13;;;1.80;;
30515;SDS011;17297;54.022;10.760;2023-08-06T12:00:08;3.78;;;1.90;;
30515;SDS011;17297;54.022;10.760;2023-08-06T12:02:41;3.88;;;2.22;;
30515;SDS011;17297;54.022;10.760;2023-08-06T12:05:10;3.15;;;2.08;;
30515;SDS011;17297;54.022;10.760;2023-08-06T12:07:50;2.90;;;2.03;;
30515;SDS011;17297;54.022;10.760;2023-08-06T12:10:20;10.05;;;2.60;;
30515;SDS011;17297;54.022;10.760;2023-08-06T12:12:45;3.47;;;2.00;;
30515;SDS011;17297;54.022;10.760;2023-08-06T12:15:11;2.75;;;2.30;;
30515;SDS011;17297;54.022;10.760;2023-08-06T12:17:38;3.15;;;2.38;;
30515;SDS011;17297;54.022;10.760;2023-08-06T12:20:04;3.50;;;2.10;;
30515;SDS011;17297;54.022;10.760;2023-08-06T12:22:31;3.25;;;2.10;;
30515;SDS011;17297;54.022;10.760;2023-08-06T12:25:00;3.85;;;2.22;;
30515;SDS011;17297;54.022;10.760;2023-08-06T12:27:36;3.33;;;2.28;;
30515;SDS011;17297;54.022;10.760;2023-08-06T12:30:02;3.83;;;2.17;;
30515;SDS011;17297;54.022;10.760;2023-08-06T12:32:29;2.88;;;2.20;;
30515;SDS011;17297;54.022;10.760;2023-08-06T12:34:55;4.45;;;1.92;;
30515;SDS011;17297;54.022;10.760;2023-08-06T12:37:20;7.70;;;3.05;;
30515;SDS011;17297;54.022;10.760;2023-08-06T12:39:46;2.83;;;1.80;;
30515;SDS011;17297;54.022;10.760;2023-08-06T12:42:12;6.38;;;2.78;;
30515;SDS011;17297;54.022;10.760;2023-08-06T12:44:37;2.20;;;1.90;;
30515;SDS011;17297;54.022;10.760;2023-08-06T12:47:03;4.93;;;2.88;;
30515;SDS011;17297;54.022;10.760;2023-08-06T12:49:28;3.60;;;2.40;;
30515;SDS011;17297;54.022;10.760;2023-08-06T12:51:54;2.30;;;2.10;;
30515;SDS011;17297;54.022;10.760;2023-08-06T12:54:21;5.68;;;3.15;;
30515;SDS011;17297;54.022;10.760;2023-08-06T12:56:47;4.65;;;2.30;;
30515;SDS011;17297;54.022;10.760;2023-08-06T12:59:14;3.92;;;2.40;;
30515;SDS011;17297;54.022;10.760;2023-08-06T13:01:40;2.97;;;2.10;;
30515;SDS011;17297;54.022;10.760;2023-08-06T13:04:06;2.85;;;1.90;;
30515;SDS011;17297;54.022;10.760;2023-08-06T13:06:31;4.00;;;2.17;;
30515;SDS011;17297;54.022;10.760;2023-08-06T13:09:02;4.70;;;2.22;;
30515;SDS011;17297;54.022;10.760;2023-08-06T13:11:28;6.95;;;3.08;;
30515;SDS011;17297;54.022;10.760;2023-08-06T13:13:53;3.53;;;2.20;;
30515;SDS011;17297;54.022;10.760;2023-08-06T13:16:19;3.15;;;2.30;;
30515;SDS011;17297;54.022;10.760;2023-08-06T13:18:45;3.92;;;3.10;;
30515;SDS011;17297;54.022;10.760;2023-08-06T13:21:10;3.15;;;2.40;;
30515;SDS011;17297;54.022;10.760;2023-08-06T13:23:35;3.55;;;2.10;;
30515;SDS011;17297;54.022;10.760;2023-08-06T13:26:01;3.78;;;2.10;;
30515;SDS011;17297;54.022;10.760;2023-08-06T13:28:26;3.58;;;2.08;;
30515;SDS011;17297;54.022;10.760;2023-08-06T13:30:51;6.53;;;2.30;;
30515;SDS011;17297;54.022;10.760;2023-08-06T13:33:17;3.05;;;2.13;;
30515;SDS011;17297;54.022;10.760;2023-08-06T13:35:42;3.72;;;2.40;;
30515;SDS011;17297;54.022;10.760;2023-08-06T13:38:07;4.03;;;1.90;;
30515;SDS011;17297;54.022;10.760;2023-08-06T13:40:33;3.95;;;2.22;;
30515;SDS011;17297;54.022;10.760;2023-08-06T13:42:59;4.00;;;1.88;;
30515;SDS011;17297;54.022;10.760;2023-08-06T13:45:25;2.92;;;1.63;;
30515;SDS011;17297;54.022;10.760;2023-08-06T13:47:50;2.53;;;2.33;;
30515;SDS011;17297;54.022;10.760;2023-08-06T13:50:16;2.22;;;1.88;;
30515;SDS011;17297;54.022;10.760;2023-08-06T13:52:41;2.97;;;1.95;;
30515;SDS011;17297;54.022;10.760;2023-08-06T13:55:06;2.65;;;1.80;;
30515;SDS011;17297;54.022;10.760;2023-08-06T13:57:33;4.35;;;2.72;;
30515;SDS011;17297;54.022;10.760;2023-08-06T13:59:59;6.22;;;2.50;;
30515;SDS011;17297;54.022;10.760;2023-08-06T14:02:25;5.50;;;3.00;;
30515;SDS011;17297;54.022;10.760;2023-08-06T14:04:52;5.47;;;2.00;;
30515;SDS011;17297;54.022;10.760;2023-08-06T14:07:17;2.13;;;1.83;;
30515;SDS011;17297;54.022;10.760;2023-08-06T14:09:43;3.85;;;2.30;;
30515;SDS011;17297;54.022;10.760;2023-08-06T14:12:09;4.90;;;2.70;;
30515;SDS011;17297;54.022;10.760;2023-08-06T14:14:35;4.22;;;2.05;;
30515;SDS011;17297;54.022;10.760;2023-08-06T14:17:00;4.30;;;2.05;;
30515;SDS011;17297;54.022;10.760;2023-08-06T14:19:26;7.47;;;2.45;;
30515;SDS011;17297;54.022;10.760;2023-08-06T14:21:51;2.90;;;2.03;;
30515;SDS011;17297;54.022;10.760;2023-08-06T14:24:17;4.75;;;2.10;;
30515;SDS011;17297;54.022;10.760;2023-08-06T14:26:42;2.38;;;1.75;;
30515;SDS011;17297;54.022;10.760;2023-08-06T14:29:09;2.50;;;1.73;;
30515;SDS011;17297;54.022;10.760;2023-08-06T14:31:34;3.17;;;1.83;;
30515;SDS011;17297;54.022;10.760;2023-08-06T14:34:00;5.82;;;3.28;;
30515;SDS011;17297;54.022;10.760;2023-08-06T14:36:25;2.08;;;1.52;;
30515;SDS011;17297;54.022;10.760;2023-08-06T14:38:51;3.03;;;1.75;;